Latest Weather Observations for Spitfire Channel

IDQ60801

Issued at 4:35 pm EST Thursday 17 April 2014 (issued every 30 minutes, with the page automatically refreshed every 10 minutes)

About weather observations | Map of weather stations | Latest weather observations for QLD | Other Formats
Station Details ID: 040927 Name: SPITFIRE CHANNEL BEACON Lat: -27.05 Lon: 153.27 Height: 7.0 m
Data from the previous 72 hours. | See also: Recent months for locations in Queensland
Date/Time
EST
Temp
°C
App
Temp
°C
Dew
Point
Rel
Hum
%
Delta-T
°C
Wind Press
QNH
hPa
Press
MSL
hPa
Rain
since 9 am
mm
Dir
 
Spd
km/h
Gust
km/h
Spd
kts
Gust
kts
17/04:30pm - - - - - E 17 20 9 11 - - -
17/04:00pm - - - - - ENE 9 9 5 5 - - -
17/03:30pm - - - - - E 11 13 6 7 - - -
17/03:00pm - - - - - E 11 15 6 8 - - -
17/02:30pm - - - - - E 13 15 7 8 - - -
17/02:00pm - - - - - ESE 15 17 8 9 - - -
17/01:30pm - - - - - SE 15 17 8 9 - - -
17/01:00pm - - - - - SE 13 17 7 9 - - -
17/12:30pm - - - - - SE 13 15 7 8 - - -
17/12:00pm - - - - - SSE 11 13 6 7 - - -
17/11:30am - - - - - S 11 15 6 8 - - -
17/11:00am - - - - - S 13 17 7 9 - - -
17/10:30am - - - - - S 13 17 7 9 - - -
17/10:00am - - - - - S 15 17 8 9 - - -
17/09:30am - - - - - S 15 17 8 9 - - -
17/09:00am - - - - - S 15 17 8 9 - - -
17/08:30am - - - - - S 17 20 9 11 - - -
17/08:00am - - - - - SSW 20 26 11 14 - - -
17/07:30am - - - - - SSW 20 24 11 13 - - -
17/07:00am - - - - - SSW 19 24 10 13 - - -
17/06:30am - - - - - SW 17 20 9 11 - - -
17/06:00am - - - - - SW 17 22 9 12 - - -
17/05:30am - - - - - SSW 20 26 11 14 - - -
17/05:00am - - - - - SSW 19 22 10 12 - - -
17/04:30am - - - - - SSW 19 22 10 12 - - -
17/04:00am - - - - - SSW 19 22 10 12 - - -
17/03:30am - - - - - S 19 22 10 12 - - -
17/03:00am - - - - - S 22 26 12 14 - - -
17/02:30am - - - - - SSE 30 33 16 18 - - -
17/02:00am - - - - - SSE 26 30 14 16 - - -
17/01:30am - - - - - SSE 22 26 12 14 - - -
17/01:00am - - - - - SSE 24 28 13 15 - - -
17/12:30am - - - - - SSE 22 26 12 14 - - -
17/12:00am - - - - - SSE 20 22 11 12 - - -
 
Date/Time
EST
Temp
°C
App
Temp
°C
Dew
Point
Rel
Hum
%
Delta-T
°C
Wind Press
QNH
hPa
Press
MSL
hPa
Rain
since 9 am
mm
Dir
 
Spd
km/h
Gust
km/h
Spd
kts
Gust
kts
16/11:30pm - - - - - SSE 20 24 11 13 - - -
16/11:00pm - - - - - SSE 20 24 11 13 - - -
16/10:30pm - - - - - SE 17 19 9 10 - - -
16/10:00pm - - - - - SE 11 15 6 8 - - -
16/09:30pm - - - - - ESE 13 19 7 10 - - -
16/09:00pm - - - - - ESE 13 17 7 9 - - -
16/08:30pm - - - - - ESE 13 17 7 9 - - -
16/08:00pm - - - - - ESE 11 20 6 11 - - -
16/07:30pm - - - - - ESE 11 13 6 7 - - -
16/07:00pm - - - - - E 11 15 6 8 - - -
16/06:30pm - - - - - ESE 13 19 7 10 - - -
16/06:00pm - - - - - ESE 19 24 10 13 - - -
16/05:30pm - - - - - E 19 20 10 11 - - -
16/05:00pm - - - - - ESE 20 26 11 14 - - -
16/04:30pm - - - - - E 20 22 11 12 - - -
16/04:00pm - - - - - E 17 19 9 10 - - -
16/03:30pm - - - - - ESE 11 13 6 7 - - -
16/03:00pm - - - - - ESE 9 11 5 6 - - -
16/02:30pm - - - - - E 11 13 6 7 - - -
16/02:00pm - - - - - ESE 7 7 4 4 - - -
16/01:30pm - - - - - ESE 7 7 4 4 - - -
16/01:00pm - - - - - ESE 7 9 4 5 - - -
16/12:30pm - - - - - SE 9 13 5 7 - - -
16/12:00pm - - - - - S 13 17 7 9 - - -
16/11:30am - - - - - S 13 15 7 8 - - -
16/11:00am - - - - - S 15 17 8 9 - - -
16/10:30am - - - - - S 15 22 8 12 - - -
16/10:00am - - - - - S 15 20 8 11 - - -
16/09:30am - - - - - S 19 22 10 12 - - -
16/09:00am - - - - - SSW 20 24 11 13 - - -
16/08:30am - - - - - SSW 20 24 11 13 - - -
16/08:00am - - - - - SSW 22 28 12 15 - - -
16/07:30am - - - - - SSW 24 30 13 16 - - -
16/07:00am - - - - - SSW 26 32 14 17 - - -
16/06:30am - - - - - S 24 30 13 16 - - -
16/06:00am - - - - - S 24 32 13 17 - - -
16/05:30am - - - - - SSW 24 30 13 16 - - -
16/05:00am - - - - - S 28 33 15 18 - - -
16/04:30am - - - - - SSW 28 32 15 17 - - -
16/04:00am - - - - - SSW 28 33 15 18 - - -
16/03:30am - - - - - SSW 30 33 16 18 - - -
16/03:00am - - - - - SSW 28 33 15 18 - - -
16/02:30am - - - - - SSW 28 33 15 18 - - -
16/02:00am - - - - - SSW 28 32 15 17 - - -
16/01:30am - - - - - SW 26 32 14 17 - - -
16/01:00am - - - - - SW 17 20 9 11 - - -
16/12:30am - - - - - SSW 20 24 11 13 - - -
16/12:00am - - - - - S 26 32 14 17 - - -
 
Date/Time
EST
Temp
°C
App
Temp
°C
Dew
Point
Rel
Hum
%
Delta-T
°C
Wind Press
QNH
hPa
Press
MSL
hPa
Rain
since 9 am
mm
Dir
 
Spd
km/h
Gust
km/h
Spd
kts
Gust
kts
15/11:30pm - - - - - S 26 32 14 17 - - -
15/11:00pm - - - - - S 30 33 16 18 - - -
15/10:30pm - - - - - S 30 35 16 19 - - -
15/10:00pm - - - - - S 30 35 16 19 - - -
15/09:30pm - - - - - SSE 33 39 18 21 - - -
15/09:00pm - - - - - SSE 35 41 19 22 - - -
15/08:30pm - - - - - SSE 33 43 18 23 - - -
15/08:00pm - - - - - SSE 35 44 19 24 - - -
15/07:30pm - - - - - SSE 32 41 17 22 - - -
15/07:00pm - - - - - SE 33 41 18 22 - - -
15/06:30pm - - - - - SE 30 37 16 20 - - -
15/06:00pm - - - - - SE 33 41 18 22 - - -
15/05:30pm - - - - - SE 33 41 18 22 - - -
15/05:00pm - - - - - SE 33 39 18 21 - - -
15/04:30pm - - - - - SSE 32 37 17 20 - - -
15/04:00pm - - - - - SSE 32 37 17 20 - - -
15/03:30pm - - - - - SSE 32 41 17 22 - - -
15/03:00pm - - - - - SSE 35 41 19 22 - - -
15/02:30pm - - - - - SSE 37 44 20 24 - - -
15/02:00pm - - - - - SSE 39 44 21 24 - - -
15/01:30pm - - - - - SSE 37 46 20 25 - - -
15/01:00pm - - - - - SSE 33 43 18 23 - - -
15/12:30pm - - - - - SSE 35 43 19 23 - - -
15/12:00pm - - - - - SSE 32 43 17 23 - - -
15/11:30am - - - - - SSE 33 39 18 21 - - -
15/11:00am - - - - - SSE 35 41 19 22 - - -
15/10:30am - - - - - SSE 37 44 20 24 - - -
15/10:00am - - - - - SSE 33 43 18 23 - - -
15/09:30am - - - - - S 37 48 20 26 - - -
15/09:00am - - - - - S 35 41 19 22 - - -
15/08:30am - - - - - S 32 41 17 22 - - -
15/08:00am - - - - - S 33 43 18 23 - - -
15/07:30am - - - - - S 30 37 16 20 - - -
15/07:00am - - - - - S 32 37 17 20 - - -
15/06:30am - - - - - S 33 44 18 24 - - -
15/06:00am - - - - - S 33 43 18 23 - - -
15/05:30am - - - - - SSE 39 46 21 25 - - -
15/05:00am - - - - - SSE 39 48 21 26 - - -
15/04:30am - - - - - S 41 48 22 26 - - -
15/04:00am - - - - - SSE 37 46 20 25 - - -
15/03:30am - - - - - SSE 43 50 23 27 - - -
15/03:00am - - - - - SSE 43 54 23 29 - - -
15/02:30am - - - - - SE 44 56 24 30 - - -
15/02:00am - - - - - SE 48 59 26 32 - - -
15/01:30am - - - - - SE 46 61 25 33 - - -
15/01:00am - - - - - SE 46 57 25 31 - - -
15/12:30am - - - - - SE 44 56 24 30 - - -
15/12:00am - - - - - SE 46 56 25 30 - - -
 
Date/Time
EST
Temp
°C
App
Temp
°C
Dew
Point
Rel
Hum
%
Delta-T
°C
Wind Press
QNH
hPa
Press
MSL
hPa
Rain
since 9 am
mm
Dir
 
Spd
km/h
Gust
km/h
Spd
kts
Gust
kts
14/11:30pm - - - - - SE 41 54 22 29 - - -
14/11:00pm - - - - - SE 44 56 24 30 - - -
14/10:30pm - - - - - SE 44 54 24 29 - - -
14/10:00pm - - - - - SE 46 56 25 30 - - -
14/09:30pm - - - - - SE 44 54 24 29 - - -
14/09:00pm - - - - - SE 43 57 23 31 - - -
14/08:30pm - - - - - SE 44 56 24 30 - - -
14/08:00pm - - - - - SE 46 57 25 31 - - -
14/07:30pm - - - - - SE 48 59 26 32 - - -
14/07:00pm - - - - - SE 44 56 24 30 - - -
14/06:30pm - - - - - SE 44 59 24 32 - - -
14/06:00pm - - - - - SE 48 59 26 32 - - -
14/05:30pm - - - - - SE 43 54 23 29 - - -
14/05:00pm - - - - - SE 44 54 24 29 - - -

Other Formats:

Comma delimited format used in spreadsheet applications
http://www.bom.gov.au/fwo/IDQ60801/IDQ60801.94581.axf

JavaScript Object Notation format (JSON) in row-major order
http://www.bom.gov.au/fwo/IDQ60801/IDQ60801.94581.json